Impacts TAF Board
For situational awareness. Not to be used for flight planning purposes.
IDs:

KAST - Astoria Rgnl, OR, US

Issued at 1727 UTC 08 Aug 2020
Updated at 2129 UTC 08 Aug 2020
Potential Impact None Slight Moderate High
Time2055Z 08/22Z 08/23Z 09/00Z 09/01Z 09/02Z 09/03Z 09/04Z 09/05Z 09/06Z 09/07Z 09/08Z 09/09Z 09/10Z>>
Type OBS PRVL PRVL PRVL PRVL PRVL PRVL PRVL PRVL PRVL PRVL PRVL PRVL PRVL
VIS 10 >6 >6 >6 >6 >6 >6 >6 >6 >6 >6 >6 >6 >6
CIG -- -- -- -- -- -- -- -- -- -- -- -- -- 45
Cover CLR FEW FEW FEW FEW FEW FEW FEW FEW FEW FEW FEW FEW BKN
FltCat VFR VFR VFR VFR VFR VFR VFR VFR VFR VFR VFR VFR VFR VFR
WX -- -- -- -- -- -- -- -- -- -- -- -- -- --
WDir 320 310 310 310 310 310 320 320 320 320 320 320 320 320
WSpd 17 12 12 12 12 12 9 9 9 9 9 9 9 6
WGst 22 20 20 20 20 20 -- -- -- -- -- -- -- --
Raw TAF
KAST 081727Z 0818/0918 31008KT P6SM FEW017 BKN050
  FM082100 31012G20KT P6SM FEW200
  FM090300 32009KT P6SM FEW250
  FM091000 32006KT P6SM BKN045
  FM091200 34004KT P6SM OVC010
  FM091700 VRB04KT P6SM FEW150


Raw METAR
KAST 082055Z AUTO 32017G22KT 10SM CLR 20/12 A3023 RMK AO2 SLP235 T02000122 51005
KAST 081955Z AUTO 32016KT 10SM SCT050 19/14 A3023 RMK AO2 SLP235 T01940139
KAST 081855Z AUTO 31011KT 10SM FEW016 OVC050 19/14 A3022 RMK AO2 SLP234 T01890139

METAR Board
Radar Display
Forecast Discussion
For situational awareness. Not to be used for flight planning purposes.